Newport News, Virginia
Current Conditions -  °F | °C
As of 4:58 PM on Monday 22 Dec 2014 (Local Time) from KLFI Reporting Station
Haze Haze  
Wind Chill: 39°   Ceiling: 700
Heat Index: 44°   Visibility: 2mi
Dew Point: 43°   Wind: 10mph
Humidity: 96%   Direction: 360°N
Pressure: 30.05"   Gusts: NA
Location:  36.98°N, 76.43°W
Report Text: KLFI 222158Z AUTO 36009KT 2SM BR OVC007 07/06 A3005 RMK AO2 VIS 1 1/4 RWY26 RAE2104DZB2104E2120 CIG 007V009 SLP183 P0000 T00670061 $
Loading
Personal Weather Stations






























Interactive Weather Map New forecast layout! Learn more

10-Day Weather Forecast

Advertisements
Track Severe Weather on mobile